Terminal Aerodrome Forecast
Issued by NWS

Home | Current Version | Previous Version | Text Only | Print | Product List | Glossary On
Versions: 1 2 3 4 5 6 7 8 9 10 11 12 13
000
FTUS46 KMTR 230525
TAFSNS
TAF
KSNS 230525Z 2306/2406 28006KT P6SM FEW050
     FM230800 VRB03KT P6SM SKC
     FM232100 27011KT P6SM FEW040
     FM240400 27006KT P6SM SKC=

USA.gov is the U.S. government's official web portal to all federal, state and local government web resources and services.